Terminal Aerodrome Forecast
Issued by NWS

Home | Current Version | Previous Version | Text Only | Print | Product List | Glossary On
Versions: 1 2 3 4 5 6 7 8 9 10 11 12 13 14
403
FTUS44 KCRP 252101 AAA
TAFALI
TAF AMD
KALI 252101Z 2521/2618 13016G23KT P6SM VCTS SCT040CB BKN060
      TEMPO 2521/2522 VRB15G25KT TSRA OVC030CB
     FM260100 12009KT P6SM SCT025 SCT250
     FM260600 11005KT P6SM BKN025 BKN250
     FM260900 07005KT P6SM VCSH BKN025 BKN250
      TEMPO 2610/2614 5SM TSRA BKN015CB
     FM261400 09010KT 6SM TSRA BKN040CB OVC250=

USA.gov is the U.S. government's official web portal to all federal, state and local government web resources and services.